createdAt,value
2023-02-16T05:06:36.430Z,33.33
2023-02-16T05:12:57.022Z,36.00
2023-02-16T08:23:19.163Z,45.50
2023-02-16T08:29:26.438Z,39.50
2023-02-16T08:35:39.621Z,46.00
2023-02-16T08:41:47.174Z,48.00
2023-02-16T08:47:53.475Z,43.25
2023-02-16T08:54:01.120Z,44.00
2023-02-16T09:00:23.569Z,39.50
2023-02-16T09:06:25.983Z,38.25
2023-02-16T09:12:30.293Z,37.75
2023-02-16T09:18:38.009Z,40.50
2023-02-16T09:24:41.839Z,37.50
2023-02-16T09:30:49.359Z,40.75
2023-02-16T09:36:53.371Z,43.00
2023-02-16T09:43:15.277Z,41.25
2023-02-16T09:49:32.972Z,32.00
2023-02-16T09:55:49.299Z,32.75
2023-02-16T10:02:01.552Z,31.00
2023-02-16T10:08:23.072Z,36.25
2023-02-16T10:14:49.906Z,36.25
2023-02-16T10:20:56.675Z,37.75
2023-02-16T10:27:15.800Z,38.00
2023-02-16T10:33:46.328Z,37.75
2023-02-16T10:40:12.555Z,43.00
2023-02-16T10:46:24.054Z,41.00
2023-02-16T10:52:33.373Z,39.50
2023-02-16T10:58:40.137Z,41.50
2023-02-16T11:04:49.153Z,42.00
2023-02-16T11:10:54.119Z,39.75
2023-02-16T11:17:13.687Z,40.75
2023-02-16T11:23:28.450Z,41.00
2023-02-16T11:29:32.858Z,44.50
2023-02-16T11:35:44.897Z,42.00
2023-02-16T11:42:05.410Z,36.25
2023-02-16T11:48:12.542Z,37.25
2023-02-16T11:54:17.917Z,36.50
2023-02-16T12:00:26.939Z,38.50
2023-02-16T12:06:32.566Z,35.75
2023-02-16T12:12:37.946Z,35.00
2023-02-16T12:18:58.384Z,36.00
2023-02-16T12:25:23.860Z,36.00
2023-02-16T12:31:52.237Z,28.50
2023-02-16T12:38:10.779Z,33.25
2023-02-16T12:44:18.272Z,32.25
2023-02-16T12:50:29.856Z,26.50
2023-02-16T12:56:50.419Z,33.00
2023-02-16T13:03:17.209Z,33.00
2023-02-16T13:09:19.291Z,32.00
2023-02-16T13:15:32.245Z,30.50
2023-02-16T13:22:15.674Z,30.00
2023-02-16T13:28:23.248Z,32.75
2023-02-16T13:34:48.527Z,34.00
2023-02-16T13:41:10.538Z,29.00
2023-02-16T13:47:24.306Z,32.50
2023-02-16T13:53:50.529Z,32.00
2023-02-16T14:00:05.713Z,31.00
2023-02-16T14:06:34.018Z,32.50
2023-02-16T14:12:41.099Z,32.00
2023-02-16T14:19:03.797Z,34.00
2023-02-16T14:25:30.431Z,32.75
2023-02-16T14:31:42.548Z,37.50
2023-02-16T14:38:26.679Z,31.00
2023-02-16T14:45:02.651Z,36.75
2023-02-16T14:51:42.701Z,33.25
2023-02-16T14:58:04.864Z,30.50
2023-02-16T15:04:10.101Z,32.00
2023-02-16T15:10:18.536Z,34.50
2023-02-16T15:16:23.159Z,33.25
2023-02-16T15:22:27.366Z,34.00
2023-02-16T15:28:32.617Z,33.75
2023-02-16T15:34:36.661Z,35.50
2023-02-16T15:40:40.305Z,36.25
2023-02-16T15:46:45.131Z,37.25
2023-02-16T15:52:48.208Z,34.75
2023-02-16T15:58:51.191Z,38.00
2023-02-16T16:05:02.468Z,36.75
2023-02-16T16:11:07.425Z,38.00
2023-02-16T16:17:15.777Z,37.50
2023-02-16T16:23:18.415Z,38.00
2023-02-16T16:29:46.992Z,36.75
2023-02-16T16:35:50.893Z,36.67
2023-02-16T16:42:14.778Z,39.00
2023-02-16T16:48:20.875Z,37.25
2023-02-16T16:54:23.126Z,37.00
2023-02-16T17:00:30.875Z,33.75
2023-02-16T17:06:33.596Z,37.50
2023-02-16T17:12:39.354Z,38.25
2023-02-16T17:18:44.672Z,38.00
2023-02-16T17:24:47.309Z,37.75
2023-02-16T17:30:51.000Z,41.25
2023-02-16T17:36:53.174Z,38.00
2023-02-16T17:42:58.289Z,39.25
2023-02-16T17:49:01.797Z,41.50
2023-02-16T17:55:04.730Z,39.00
2023-02-16T18:01:07.079Z,40.25
2023-02-16T18:07:18.524Z,42.50
2023-02-16T18:13:23.897Z,40.00
2023-02-16T18:19:27.734Z,42.00
2023-02-16T18:25:31.245Z,39.25
2023-02-16T18:31:33.562Z,40.00
2023-02-16T18:37:36.406Z,40.50
2023-02-16T18:43:44.557Z,41.00
2023-02-16T18:49:49.667Z,41.00
2023-02-16T18:55:53.120Z,40.25
2023-02-16T19:01:56.879Z,42.25
2023-02-16T19:07:59.570Z,40.33
2023-02-16T19:14:03.077Z,40.75
2023-02-16T19:20:13.706Z,36.75
2023-02-16T19:26:16.890Z,39.00
2023-02-16T19:32:20.678Z,40.50
2023-02-16T19:38:25.912Z,40.00
2023-02-16T19:44:28.585Z,40.00
2023-02-16T19:50:31.034Z,40.00
2023-02-16T19:56:33.780Z,39.25
2023-02-16T20:02:38.241Z,38.25
2023-02-16T20:08:40.491Z,35.50
2023-02-16T20:14:47.552Z,38.25
2023-02-16T20:20:59.845Z,37.25
2023-02-16T20:27:05.070Z,38.00
2023-02-16T20:33:08.209Z,34.25
2023-02-16T20:39:10.409Z,34.00
2023-02-16T20:45:13.504Z,36.75
2023-02-16T20:51:18.869Z,39.00
2023-02-16T20:57:26.797Z,36.50
2023-02-16T21:03:29.773Z,35.75
2023-02-16T21:09:32.367Z,37.00
2023-02-16T21:15:34.620Z,30.00
2023-02-16T21:21:37.459Z,38.33
2023-02-16T21:27:39.460Z,35.00
2023-02-16T21:33:41.994Z,37.25
2023-02-16T21:40:03.205Z,38.33
2023-02-16T21:46:08.778Z,38.00
2023-02-16T21:52:11.209Z,40.00
2023-02-16T21:58:13.476Z,36.75
2023-02-16T22:04:19.001Z,39.00
2023-02-16T22:10:21.411Z,38.00
2023-02-16T22:16:24.400Z,20.50
2023-02-16T22:22:26.832Z,33.00
2023-02-16T22:28:30.052Z,36.75
2023-02-16T22:34:32.525Z,35.50
2023-02-16T22:40:34.562Z,39.25
2023-02-16T22:46:36.700Z,34.50
2023-02-16T22:52:38.861Z,35.00
2023-02-16T22:58:42.064Z,37.33
2023-02-16T23:04:44.149Z,32.00
2023-02-16T23:11:00.144Z,37.75
2023-02-16T23:17:02.369Z,40.00
2023-02-16T23:23:04.449Z,38.00
2023-02-16T23:29:08.323Z,38.00
2023-02-16T23:35:10.435Z,37.00
2023-02-16T23:41:14.466Z,36.33
2023-02-16T23:47:16.557Z,36.33
2023-02-16T23:53:21.098Z,38.67
2023-02-16T23:59:23.924Z,32.33
